sensor_id;sensor_type;location;lat;lon;timestamp;pressure;altitude;pressure_sealevel;temperature;humidity
39949;BME280;29070;48.102;-1.652;2023-04-10T00:01:53;101543.09;;;12.88;54.97
39949;BME280;29070;48.102;-1.652;2023-04-10T00:06:53;101543.09;;;12.88;55.22
39949;BME280;29070;48.102;-1.652;2023-04-10T00:11:54;101541.44;;;12.87;55.85
39949;BME280;29070;48.102;-1.652;2023-04-10T00:16:55;101529.56;;;12.91;55.99
39949;BME280;29070;48.102;-1.652;2023-04-10T00:21:56;101533.00;;;12.92;56.32
39949;BME280;29070;48.102;-1.652;2023-04-10T00:26:56;101532.63;;;12.95;56.59
39949;BME280;29070;48.102;-1.652;2023-04-10T00:31:57;101518.41;;;12.96;56.73
39949;BME280;29070;48.102;-1.652;2023-04-10T00:36:58;101504.44;;;12.95;57.19
39949;BME280;29070;48.102;-1.652;2023-04-10T00:41:58;101507.06;;;12.95;57.27
39949;BME280;29070;48.102;-1.652;2023-04-10T00:46:58;101497.72;;;12.93;57.79
39949;BME280;29070;48.102;-1.652;2023-04-10T00:51:59;101487.81;;;12.95;57.76
39949;BME280;29070;48.102;-1.652;2023-04-10T00:57:00;101488.44;;;12.97;58.18
39949;BME280;29070;48.102;-1.652;2023-04-10T01:02:01;101476.44;;;12.94;58.25
39949;BME280;29070;48.102;-1.652;2023-04-10T01:23:29;101467.69;;;12.87;60.02
39949;BME280;29070;48.102;-1.652;2023-04-10T01:34:04;101425.28;;;12.82;59.64
39949;BME280;29070;48.102;-1.652;2023-04-10T01:39:05;101420.59;;;12.77;59.59
39949;BME280;29070;48.102;-1.652;2023-04-10T01:44:08;101407.63;;;12.76;60.02
39949;BME280;29070;48.102;-1.652;2023-04-10T01:49:11;101409.44;;;12.75;60.15
39949;BME280;29070;48.102;-1.652;2023-04-10T01:54:12;101398.50;;;12.72;60.33
39949;BME280;29070;48.102;-1.652;2023-04-10T01:59:13;101415.66;;;12.68;60.59
39949;BME280;29070;48.102;-1.652;2023-04-10T02:04:13;101418.69;;;12.65;60.87
39949;BME280;29070;48.102;-1.652;2023-04-10T02:09:22;101407.75;;;12.68;61.67
39949;BME280;29070;48.102;-1.652;2023-04-10T02:14:26;101407.91;;;12.59;61.46
39949;BME280;29070;48.102;-1.652;2023-04-10T02:19:30;101404.25;;;12.61;61.76
39949;BME280;29070;48.102;-1.652;2023-04-10T02:24:32;101388.09;;;12.64;61.82
39949;BME280;29070;48.102;-1.652;2023-04-10T02:29:32;101401.06;;;12.65;62.00
39949;BME280;29070;48.102;-1.652;2023-04-10T02:34:33;101415.44;;;12.63;62.21
39949;BME280;29070;48.102;-1.652;2023-04-10T02:39:33;101419.69;;;12.64;62.28
39949;BME280;29070;48.102;-1.652;2023-04-10T02:44:34;101412.81;;;12.63;62.78
39949;BME280;29070;48.102;-1.652;2023-04-10T02:49:34;101370.69;;;12.63;62.91
39949;BME280;29070;48.102;-1.652;2023-04-10T02:54:35;101392.31;;;12.58;63.29
39949;BME280;29070;48.102;-1.652;2023-04-10T02:59:35;101382.56;;;12.58;63.51
39949;BME280;29070;48.102;-1.652;2023-04-10T03:04:36;101355.88;;;12.62;63.70
39949;BME280;29070;48.102;-1.652;2023-04-10T03:09:36;101371.28;;;12.65;64.07
39949;BME280;29070;48.102;-1.652;2023-04-10T03:14:36;101370.69;;;12.63;64.22
39949;BME280;29070;48.102;-1.652;2023-04-10T03:19:37;101384.41;;;12.58;64.37
39949;BME280;29070;48.102;-1.652;2023-04-10T03:24:37;101379.13;;;12.58;64.76
39949;BME280;29070;48.102;-1.652;2023-04-10T03:29:39;101399.16;;;12.52;65.14
39949;BME280;29070;48.102;-1.652;2023-04-10T03:34:39;101391.69;;;12.56;65.51
39949;BME280;29070;48.102;-1.652;2023-04-10T03:39:39;101399.53;;;12.49;66.05
39949;BME280;29070;48.102;-1.652;2023-04-10T03:44:40;101403.38;;;12.47;66.41
39949;BME280;29070;48.102;-1.652;2023-04-10T03:49:40;101394.06;;;12.51;66.58
39949;BME280;29070;48.102;-1.652;2023-04-10T03:54:40;101388.44;;;12.54;66.74
39949;BME280;29070;48.102;-1.652;2023-04-10T03:59:41;101371.00;;;12.53;66.86
39949;BME280;29070;48.102;-1.652;2023-04-10T04:04:41;101386.00;;;12.52;67.00
39949;BME280;29070;48.102;-1.652;2023-04-10T04:09:42;101392.69;;;12.55;67.31
39949;BME280;29070;48.102;-1.652;2023-04-10T04:14:42;101404.19;;;12.47;67.85
39949;BME280;29070;48.102;-1.652;2023-04-10T04:19:44;101405.41;;;12.51;67.87
39949;BME280;29070;48.102;-1.652;2023-04-10T04:24:44;101397.50;;;12.51;68.13
39949;BME280;29070;48.102;-1.652;2023-04-10T04:29:44;101397.56;;;12.58;68.24
39949;BME280;29070;48.102;-1.652;2023-04-10T04:34:45;101402.41;;;12.54;68.61
39949;BME280;29070;48.102;-1.652;2023-04-10T04:39:46;101393.47;;;12.55;68.77
39949;BME280;29070;48.102;-1.652;2023-04-10T04:44:48;101395.94;;;12.57;69.10
39949;BME280;29070;48.102;-1.652;2023-04-10T04:49:49;101388.47;;;12.61;69.26
39949;BME280;29070;48.102;-1.652;2023-04-10T04:54:49;101368.41;;;12.59;69.32
39949;BME280;29070;48.102;-1.652;2023-04-10T04:59:49;101368.84;;;12.63;69.47
39949;BME280;29070;48.102;-1.652;2023-04-10T05:04:50;101372.66;;;12.61;69.39
39949;BME280;29070;48.102;-1.652;2023-04-10T05:09:50;101382.19;;;12.62;69.53
39949;BME280;29070;48.102;-1.652;2023-04-10T05:14:51;101383.84;;;12.63;69.78
39949;BME280;29070;48.102;-1.652;2023-04-10T05:19:51;101387.28;;;12.63;69.95
39949;BME280;29070;48.102;-1.652;2023-04-10T05:24:51;101404.69;;;12.64;70.21
39949;BME280;29070;48.102;-1.652;2023-04-10T05:29:54;101424.53;;;12.60;70.67
39949;BME280;29070;48.102;-1.652;2023-04-10T05:34:54;101436.53;;;12.63;70.63
39949;BME280;29070;48.102;-1.652;2023-04-10T05:39:54;101429.59;;;12.62;71.01
39949;BME280;29070;48.102;-1.652;2023-04-10T05:44:55;101423.34;;;12.63;71.00
39949;BME280;29070;48.102;-1.652;2023-04-10T05:49:55;101419.13;;;12.68;71.35
39949;BME280;29070;48.102;-1.652;2023-04-10T05:54:55;101404.13;;;12.69;71.04
39949;BME280;29070;48.102;-1.652;2023-04-10T05:59:56;101417.69;;;12.66;71.70
39949;BME280;29070;48.102;-1.652;2023-04-10T06:04:56;101416.09;;;12.71;71.78
39949;BME280;29070;48.102;-1.652;2023-04-10T06:09:56;101423.81;;;12.73;71.83
39949;BME280;29070;48.102;-1.652;2023-04-10T06:14:57;101427.47;;;12.72;72.09
39949;BME280;29070;48.102;-1.652;2023-04-10T06:19:57;101428.47;;;12.71;72.13
39949;BME280;29070;48.102;-1.652;2023-04-10T06:25:00;101425.88;;;12.77;72.44
39949;BME280;29070;48.102;-1.652;2023-04-10T06:30:00;101418.41;;;12.81;72.78
39949;BME280;29070;48.102;-1.652;2023-04-10T06:35:01;101416.19;;;12.85;72.65
39949;BME280;29070;48.102;-1.652;2023-04-10T06:40:09;101400.00;;;12.88;72.97
39949;BME280;29070;48.102;-1.652;2023-04-10T06:45:10;101400.63;;;12.90;73.15
39949;BME280;29070;48.102;-1.652;2023-04-10T06:50:10;101418.88;;;12.91;73.14
39949;BME280;29070;48.102;-1.652;2023-04-10T06:55:11;101425.19;;;12.97;73.38
39949;BME280;29070;48.102;-1.652;2023-04-10T07:00:14;101407.75;;;12.96;73.80
39949;BME280;29070;48.102;-1.652;2023-04-10T07:05:15;101394.19;;;12.99;73.91
39949;BME280;29070;48.102;-1.652;2023-04-10T07:10:15;101383.72;;;13.12;73.93
39949;BME280;29070;48.102;-1.652;2023-04-10T07:15:16;101387.63;;;13.23;73.90
39949;BME280;29070;48.102;-1.652;2023-04-10T07:20:16;101388.88;;;13.27;74.15
39949;BME280;29070;48.102;-1.652;2023-04-10T07:25:17;101370.25;;;13.35;73.97
39949;BME280;29070;48.102;-1.652;2023-04-10T07:30:17;101364.59;;;13.39;74.19
39949;BME280;29070;48.102;-1.652;2023-04-10T07:35:18;101371.50;;;13.40;74.07
39949;BME280;29070;48.102;-1.652;2023-04-10T07:40:19;101360.75;;;13.41;74.19
39949;BME280;29070;48.102;-1.652;2023-04-10T07:45:20;101358.53;;;13.45;74.85
39949;BME280;29070;48.102;-1.652;2023-04-10T07:50:20;101371.53;;;13.53;74.60
39949;BME280;29070;48.102;-1.652;2023-04-10T07:55:21;101357.78;;;13.58;74.62
39949;BME280;29070;48.102;-1.652;2023-04-10T08:00:21;101378.25;;;13.62;74.76
39949;BME280;29070;48.102;-1.652;2023-04-10T08:05:21;101387.63;;;13.65;74.70
39949;BME280;29070;48.102;-1.652;2023-04-10T08:10:22;101388.22;;;13.67;74.88
39949;BME280;29070;48.102;-1.652;2023-04-10T08:15:22;101391.50;;;13.76;74.75
39949;BME280;29070;48.102;-1.652;2023-04-10T08:20:22;101388.44;;;13.79;75.00
39949;BME280;29070;48.102;-1.652;2023-04-10T08:25:23;101390.72;;;13.88;75.16
39949;BME280;29070;48.102;-1.652;2023-04-10T08:30:23;101381.78;;;13.96;75.21
39949;BME280;29070;48.102;-1.652;2023-04-10T08:35:23;101387.88;;;14.03;75.16
39949;BME280;29070;48.102;-1.652;2023-04-10T08:40:24;101389.53;;;14.04;75.23
39949;BME280;29070;48.102;-1.652;2023-04-10T08:45:24;101387.50;;;14.06;75.25
39949;BME280;29070;48.102;-1.652;2023-04-10T08:50:27;101371.66;;;14.13;75.24
39949;BME280;29070;48.102;-1.652;2023-04-10T08:55:30;101376.94;;;14.20;75.34
39949;BME280;29070;48.102;-1.652;2023-04-10T09:00:34;101372.66;;;14.32;75.48
39949;BME280;29070;48.102;-1.652;2023-04-10T09:05:37;101383.84;;;14.47;75.38
39949;BME280;29070;48.102;-1.652;2023-04-10T09:10:38;101389.56;;;14.58;75.34
39949;BME280;29070;48.102;-1.652;2023-04-10T09:15:57;101399.91;;;14.59;75.51
39949;BME280;29070;48.102;-1.652;2023-04-10T09:21:05;101398.06;;;14.66;75.21
39949;BME280;29070;48.102;-1.652;2023-04-10T09:26:29;101391.97;;;14.66;75.37
39949;BME280;29070;48.102;-1.652;2023-04-10T09:31:38;101389.34;;;14.66;75.20
39949;BME280;29070;48.102;-1.652;2023-04-10T09:36:40;101385.88;;;14.65;74.96
39949;BME280;29070;48.102;-1.652;2023-04-10T09:41:49;101378.97;;;14.71;74.85
39949;BME280;29070;48.102;-1.652;2023-04-10T09:46:49;101376.06;;;14.86;75.06
39949;BME280;29070;48.102;-1.652;2023-04-10T09:51:50;101377.91;;;14.99;75.10
39949;BME280;29070;48.102;-1.652;2023-04-10T09:56:51;101381.34;;;14.99;74.87
39949;BME280;29070;48.102;-1.652;2023-04-10T10:01:52;101373.78;;;15.10;75.00
39949;BME280;29070;48.102;-1.652;2023-04-10T10:06:52;101359.72;;;15.16;74.76
39949;BME280;29070;48.102;-1.652;2023-04-10T10:11:54;101369.25;;;15.23;74.62
39949;BME280;29070;48.102;-1.652;2023-04-10T10:16:55;101366.84;;;15.15;74.51
39949;BME280;29070;48.102;-1.652;2023-04-10T10:21:59;101364.81;;;15.17;74.54
39949;BME280;29070;48.102;-1.652;2023-04-10T10:27:00;101367.03;;;15.20;74.47
39949;BME280;29070;48.102;-1.652;2023-04-10T10:32:02;101368.66;;;15.21;74.35
39949;BME280;29070;48.102;-1.652;2023-04-10T10:37:05;101348.72;;;15.25;74.76
39949;BME280;29070;48.102;-1.652;2023-04-10T10:42:26;101344.44;;;15.24;74.69
39949;BME280;29070;48.102;-1.652;2023-04-10T10:47:31;101351.78;;;15.22;74.50
39949;BME280;29070;48.102;-1.652;2023-04-10T10:52:50;101347.47;;;15.28;74.46
39949;BME280;29070;48.102;-1.652;2023-04-10T10:57:57;101343.34;;;15.39;74.53
39949;BME280;29070;48.102;-1.652;2023-04-10T11:19:05;101332.28;;;15.49;74.70
39949;BME280;29070;48.102;-1.652;2023-04-10T11:24:07;101324.28;;;15.62;74.90
39949;BME280;29070;48.102;-1.652;2023-04-10T11:34:17;101344.19;;;15.71;74.72
39949;BME280;29070;48.102;-1.652;2023-04-10T11:39:18;101332.19;;;15.69;74.46
39949;BME280;29070;48.102;-1.652;2023-04-10T11:44:45;101332.41;;;15.67;75.14
39949;BME280;29070;48.102;-1.652;2023-04-10T11:49:52;101333.44;;;15.98;75.08
39949;BME280;29070;48.102;-1.652;2023-04-10T11:54:54;101329.03;;;16.17;74.53
39949;BME280;29070;48.102;-1.652;2023-04-10T11:59:55;101312.13;;;16.36;74.14
39949;BME280;29070;48.102;-1.652;2023-04-10T12:04:59;101295.72;;;16.65;73.72
39949;BME280;29070;48.102;-1.652;2023-04-10T12:09:59;101309.53;;;16.92;73.60
39949;BME280;29070;48.102;-1.652;2023-04-10T12:15:02;101300.81;;;17.03;72.43
39949;BME280;29070;48.102;-1.652;2023-04-10T12:20:02;101318.19;;;17.18;72.17
39949;BME280;29070;48.102;-1.652;2023-04-10T12:25:03;101326.00;;;17.12;71.63
39949;BME280;29070;48.102;-1.652;2023-04-10T12:30:06;101322.03;;;17.03;71.32
39949;BME280;29070;48.102;-1.652;2023-04-10T12:35:07;101326.00;;;17.12;71.47
39949;BME280;29070;48.102;-1.652;2023-04-10T12:40:09;101331.84;;;17.33;70.97
39949;BME280;29070;48.102;-1.652;2023-04-10T12:45:10;101335.09;;;17.35;71.19
39949;BME280;29070;48.102;-1.652;2023-04-10T12:50:14;101314.44;;;17.37;71.10
39949;BME280;29070;48.102;-1.652;2023-04-10T12:55:17;101322.31;;;17.44;70.43
39949;BME280;29070;48.102;-1.652;2023-04-10T13:00:18;101328.28;;;17.39;70.47
39949;BME280;29070;48.102;-1.652;2023-04-10T13:05:18;101342.63;;;17.20;69.92
39949;BME280;29070;48.102;-1.652;2023-04-10T13:10:20;101342.34;;;17.09;69.84
39949;BME280;29070;48.102;-1.652;2023-04-10T13:15:21;101332.81;;;17.20;69.40
39949;BME280;29070;48.102;-1.652;2023-04-10T13:20:22;101323.16;;;17.26;69.19
39949;BME280;29070;48.102;-1.652;2023-04-10T13:25:23;101328.81;;;17.29;68.71
39949;BME280;29070;48.102;-1.652;2023-04-10T13:30:23;101326.66;;;17.08;68.25
39949;BME280;29070;48.102;-1.652;2023-04-10T13:35:23;101324.09;;;17.01;68.22
39949;BME280;29070;48.102;-1.652;2023-04-10T13:40:24;101324.81;;;17.08;68.18
39949;BME280;29070;48.102;-1.652;2023-04-10T13:45:24;101303.69;;;17.32;68.04
39949;BME280;29070;48.102;-1.652;2023-04-10T13:50:25;101310.47;;;17.58;67.24
39949;BME280;29070;48.102;-1.652;2023-04-10T13:55:25;101281.88;;;17.72;66.45
39949;BME280;29070;48.102;-1.652;2023-04-10T14:00:26;101280.31;;;17.95;66.18
39949;BME280;29070;48.102;-1.652;2023-04-10T14:05:26;101264.94;;;17.97;65.01
39949;BME280;29070;48.102;-1.652;2023-04-10T14:10:27;101259.06;;;17.95;64.67
39949;BME280;29070;48.102;-1.652;2023-04-10T14:15:27;101262.63;;;18.00;64.14
39949;BME280;29070;48.102;-1.652;2023-04-10T14:20:27;101260.69;;;17.96;63.71
39949;BME280;29070;48.102;-1.652;2023-04-10T14:25:28;101264.03;;;18.03;63.39
39949;BME280;29070;48.102;-1.652;2023-04-10T14:30:28;101276.38;;;18.09;62.39
39949;BME280;29070;48.102;-1.652;2023-04-10T14:35:29;101257.66;;;18.04;62.26
39949;BME280;29070;48.102;-1.652;2023-04-10T14:40:30;101248.19;;;18.32;62.31
39949;BME280;29070;48.102;-1.652;2023-04-10T14:45:30;101269.41;;;18.55;61.81
39949;BME280;29070;48.102;-1.652;2023-04-10T14:50:32;101273.31;;;18.53;61.17
39949;BME280;29070;48.102;-1.652;2023-04-10T14:55:32;101266.81;;;18.84;61.11
39949;BME280;29070;48.102;-1.652;2023-04-10T15:00:34;101251.63;;;18.96;60.78
39949;BME280;29070;48.102;-1.652;2023-04-10T15:05:34;101254.41;;;19.18;60.46
39949;BME280;29070;48.102;-1.652;2023-04-10T15:10:34;101252.06;;;19.22;59.68
39949;BME280;29070;48.102;-1.652;2023-04-10T15:15:35;101260.06;;;18.93;59.37
39949;BME280;29070;48.102;-1.652;2023-04-10T15:20:35;101257.19;;;18.95;59.37
39949;BME280;29070;48.102;-1.652;2023-04-10T15:25:36;101267.72;;;18.78;58.80
39949;BME280;29070;48.102;-1.652;2023-04-10T15:30:37;101267.63;;;18.73;58.72
39949;BME280;29070;48.102;-1.652;2023-04-10T15:35:37;101268.75;;;18.89;58.86
39949;BME280;29070;48.102;-1.652;2023-04-10T15:40:37;101270.50;;;18.83;58.13
39949;BME280;29070;48.102;-1.652;2023-04-10T15:45:38;101261.81;;;18.88;58.19
39949;BME280;29070;48.102;-1.652;2023-04-10T15:50:38;101261.50;;;18.84;57.36
39949;BME280;29070;48.102;-1.652;2023-04-10T15:55:42;101281.16;;;18.83;57.12
39949;BME280;29070;48.102;-1.652;2023-04-10T16:00:42;101281.97;;;18.72;57.17
39949;BME280;29070;48.102;-1.652;2023-04-10T16:05:43;101265.09;;;18.66;56.81
39949;BME280;29070;48.102;-1.652;2023-04-10T16:10:43;101255.81;;;18.80;56.95
39949;BME280;29070;48.102;-1.652;2023-04-10T16:15:43;101259.88;;;18.83;56.56
39949;BME280;29070;48.102;-1.652;2023-04-10T16:20:46;101255.94;;;18.85;56.10
39949;BME280;29070;48.102;-1.652;2023-04-10T16:25:46;101245.31;;;18.74;55.68
39949;BME280;29070;48.102;-1.652;2023-04-10T16:30:46;101255.00;;;18.80;55.72
39949;BME280;29070;48.102;-1.652;2023-04-10T16:35:47;101258.94;;;18.77;55.32
39949;BME280;29070;48.102;-1.652;2023-04-10T16:40:47;101256.78;;;18.62;54.97
39949;BME280;29070;48.102;-1.652;2023-04-10T16:45:58;101267.44;;;18.51;52.76
39949;BME280;29070;48.102;-1.652;2023-04-10T16:50:58;101278.34;;;18.37;54.33
39949;BME280;29070;48.102;-1.652;2023-04-10T16:56:05;101265.75;;;18.09;54.48
39949;BME280;29070;48.102;-1.652;2023-04-10T17:01:34;101249.59;;;17.87;53.41
39949;BME280;29070;48.102;-1.652;2023-04-10T17:06:38;101239.94;;;17.74;54.63
39949;BME280;29070;48.102;-1.652;2023-04-10T17:11:39;101258.31;;;17.64;54.27
39949;BME280;29070;48.102;-1.652;2023-04-10T17:16:39;101263.94;;;17.56;54.39
39949;BME280;29070;48.102;-1.652;2023-04-10T17:21:39;101269.00;;;17.45;54.52
39949;BME280;29070;48.102;-1.652;2023-04-10T17:26:40;101263.75;;;17.27;54.49
39949;BME280;29070;48.102;-1.652;2023-04-10T17:31:40;101258.66;;;17.13;54.88
39949;BME280;29070;48.102;-1.652;2023-04-10T17:36:40;101264.84;;;17.07;54.87
39949;BME280;29070;48.102;-1.652;2023-04-10T17:41:41;101261.31;;;16.95;55.18
39949;BME280;29070;48.102;-1.652;2023-04-10T17:46:41;101285.34;;;16.82;55.28
39949;BME280;29070;48.102;-1.652;2023-04-10T17:51:42;101284.47;;;16.51;56.05
39949;BME280;29070;48.102;-1.652;2023-04-10T17:56:42;101293.97;;;16.15;56.74
39949;BME280;29070;48.102;-1.652;2023-04-10T18:01:42;101295.88;;;16.08;56.96
39949;BME280;29070;48.102;-1.652;2023-04-10T18:06:43;101303.88;;;16.01;57.47
39949;BME280;29070;48.102;-1.652;2023-04-10T18:11:43;101317.44;;;15.86;57.74
39949;BME280;29070;48.102;-1.652;2023-04-10T18:16:43;101328.31;;;15.71;58.01
39949;BME280;29070;48.102;-1.652;2023-04-10T18:21:44;101328.16;;;15.59;58.13
39949;BME280;29070;48.102;-1.652;2023-04-10T18:26:45;101348.63;;;15.46;58.57
39949;BME280;29070;48.102;-1.652;2023-04-10T18:31:47;101374.03;;;14.95;61.00
39949;BME280;29070;48.102;-1.652;2023-04-10T18:36:47;101380.81;;;14.51;62.14
39949;BME280;29070;48.102;-1.652;2023-04-10T18:41:48;101398.03;;;14.20;63.37
39949;BME280;29070;48.102;-1.652;2023-04-10T18:46:48;101415.91;;;14.04;63.39
39949;BME280;29070;48.102;-1.652;2023-04-10T18:51:48;101406.56;;;13.95;63.77
39949;BME280;29070;48.102;-1.652;2023-04-10T18:56:49;101416.25;;;13.75;64.10
39949;BME280;29070;48.102;-1.652;2023-04-10T19:01:49;101416.19;;;13.54;64.42
39949;BME280;29070;48.102;-1.652;2023-04-10T19:06:49;101424.44;;;13.45;64.46
39949;BME280;29070;48.102;-1.652;2023-04-10T19:11:50;101425.63;;;13.35;64.40
39949;BME280;29070;48.102;-1.652;2023-04-10T19:16:50;101432.66;;;13.22;64.91
39949;BME280;29070;48.102;-1.652;2023-04-10T19:21:51;101439.25;;;13.11;65.10
39949;BME280;29070;48.102;-1.652;2023-04-10T19:26:51;101435.75;;;13.04;65.49
39949;BME280;29070;48.102;-1.652;2023-04-10T19:31:52;101446.72;;;13.01;66.18
39949;BME280;29070;48.102;-1.652;2023-04-10T19:36:52;101434.03;;;12.89;66.02
39949;BME280;29070;48.102;-1.652;2023-04-10T19:41:54;101465.22;;;12.79;66.42
39949;BME280;29070;48.102;-1.652;2023-04-10T19:46:56;101481.94;;;12.71;66.56
39949;BME280;29070;48.102;-1.652;2023-04-10T19:51:56;101468.13;;;12.63;66.71
39949;BME280;29070;48.102;-1.652;2023-04-10T19:56:57;101480.44;;;12.62;66.82
39949;BME280;29070;48.102;-1.652;2023-04-10T20:01:57;101479.66;;;12.62;67.01
39949;BME280;29070;48.102;-1.652;2023-04-10T20:06:58;101487.13;;;12.58;67.01
39949;BME280;29070;48.102;-1.652;2023-04-10T20:11:58;101505.09;;;12.54;67.20
39949;BME280;29070;48.102;-1.652;2023-04-10T20:16:59;101503.44;;;12.47;67.32
39949;BME280;29070;48.102;-1.652;2023-04-10T20:21:59;101503.09;;;12.35;67.54
39949;BME280;29070;48.102;-1.652;2023-04-10T20:26:59;101501.16;;;12.22;68.00
39949;BME280;29070;48.102;-1.652;2023-04-10T20:32:00;101511.34;;;12.10;68.08
39949;BME280;29070;48.102;-1.652;2023-04-10T20:37:01;101502.19;;;12.06;68.21
39949;BME280;29070;48.102;-1.652;2023-04-10T20:42:02;101521.31;;;12.00;68.37
39949;BME280;29070;48.102;-1.652;2023-04-10T20:47:04;101525.69;;;11.93;68.51
39949;BME280;29070;48.102;-1.652;2023-04-10T20:52:05;101555.16;;;11.88;68.60
39949;BME280;29070;48.102;-1.652;2023-04-10T20:57:05;101552.00;;;11.78;68.86
39949;BME280;29070;48.102;-1.652;2023-04-10T21:02:06;101554.72;;;11.70;68.92
39949;BME280;29070;48.102;-1.652;2023-04-10T21:07:06;101538.41;;;11.59;69.18
39949;BME280;29070;48.102;-1.652;2023-04-10T21:12:06;101553.09;;;11.54;69.43
39949;BME280;29070;48.102;-1.652;2023-04-10T21:17:07;101541.28;;;11.50;69.61
39949;BME280;29070;48.102;-1.652;2023-04-10T21:22:07;101540.28;;;11.51;69.92
39949;BME280;29070;48.102;-1.652;2023-04-10T21:27:09;101551.97;;;11.48;69.87
39949;BME280;29070;48.102;-1.652;2023-04-10T21:32:10;101549.91;;;11.43;70.08
39949;BME280;29070;48.102;-1.652;2023-04-10T21:37:10;101543.00;;;11.42;70.29
39949;BME280;29070;48.102;-1.652;2023-04-10T21:42:11;101545.00;;;11.40;70.23
39949;BME280;29070;48.102;-1.652;2023-04-10T21:47:11;101554.53;;;11.41;70.37
39949;BME280;29070;48.102;-1.652;2023-04-10T21:52:11;101567.38;;;11.36;70.59
39949;BME280;29070;48.102;-1.652;2023-04-10T21:57:12;101565.09;;;11.33;70.75
39949;BME280;29070;48.102;-1.652;2023-04-10T22:02:12;101561.84;;;11.31;70.87
39949;BME280;29070;48.102;-1.652;2023-04-10T22:07:12;101570.06;;;11.28;71.06
39949;BME280;29070;48.102;-1.652;2023-04-10T22:12:13;101584.75;;;11.22;71.05
39949;BME280;29070;48.102;-1.652;2023-04-10T22:17:14;101580.31;;;11.23;71.14
39949;BME280;29070;48.102;-1.652;2023-04-10T22:22:14;101591.53;;;11.17;71.27
39949;BME280;29070;48.102;-1.652;2023-04-10T22:27:15;101589.91;;;11.16;71.34
39949;BME280;29070;48.102;-1.652;2023-04-10T22:32:15;101587.56;;;10.98;71.67
39949;BME280;29070;48.102;-1.652;2023-04-10T22:37:16;101593.72;;;10.90;71.83
39949;BME280;29070;48.102;-1.652;2023-04-10T22:42:16;101597.16;;;10.91;71.93
39949;BME280;29070;48.102;-1.652;2023-04-10T22:47:16;101593.41;;;10.85;71.88
39949;BME280;29070;48.102;-1.652;2023-04-10T22:52:17;101596.59;;;10.80;71.88
39949;BME280;29070;48.102;-1.652;2023-04-10T22:57:17;101589.56;;;10.73;72.18
39949;BME280;29070;48.102;-1.652;2023-04-10T23:02:18;101580.09;;;10.63;72.43
39949;BME280;29070;48.102;-1.652;2023-04-10T23:07:18;101589.31;;;10.59;72.38
39949;BME280;29070;48.102;-1.652;2023-04-10T23:12:18;101583.28;;;10.59;72.55
39949;BME280;29070;48.102;-1.652;2023-04-10T23:17:19;101586.75;;;10.51;72.71
39949;BME280;29070;48.102;-1.652;2023-04-10T23:22:20;101599.56;;;10.46;72.55
39949;BME280;29070;48.102;-1.652;2023-04-10T23:27:20;101604.81;;;10.46;72.71
39949;BME280;29070;48.102;-1.652;2023-04-10T23:32:21;101616.69;;;10.34;73.00
39949;BME280;29070;48.102;-1.652;2023-04-10T23:37:21;101624.22;;;10.28;73.00
39949;BME280;29070;48.102;-1.652;2023-04-10T23:42:22;101622.91;;;10.24;73.14
39949;BME280;29070;48.102;-1.652;2023-04-10T23:47:22;101638.34;;;10.19;73.01
39949;BME280;29070;48.102;-1.652;2023-04-10T23:52:22;101650.19;;;10.15;73.14
39949;BME280;29070;48.102;-1.652;2023-04-10T23:57:23;101635.94;;;10.09;72.98
